sensor_id;sensor_type;location;lat;lon;timestamp;temperature;humidity
23188;DHT22;11762;59.878;17.686;2023-04-29T00:00:17;0.10;99.90
23188;DHT22;11762;59.878;17.686;2023-04-29T00:02:45;0.10;99.90
23188;DHT22;11762;59.878;17.686;2023-04-29T00:05:13;0.10;99.90
23188;DHT22;11762;59.878;17.686;2023-04-29T00:07:40;0.10;99.90
23188;DHT22;11762;59.878;17.686;2023-04-29T00:10:08;0.10;99.90
23188;DHT22;11762;59.878;17.686;2023-04-29T00:12:37;0.10;99.90
23188;DHT22;11762;59.878;17.686;2023-04-29T00:15:04;0.10;99.90
23188;DHT22;11762;59.878;17.686;2023-04-29T00:17:31;0.10;99.90
23188;DHT22;11762;59.878;17.686;2023-04-29T00:20:00;0.00;99.90
23188;DHT22;11762;59.878;17.686;2023-04-29T00:22:27;0.00;99.90
23188;DHT22;11762;59.878;17.686;2023-04-29T00:24:55;-0.10;99.90
23188;DHT22;11762;59.878;17.686;2023-04-29T00:27:22;-0.20;99.90
23188;DHT22;11762;59.878;17.686;2023-04-29T00:29:49;-0.30;99.90
23188;DHT22;11762;59.878;17.686;2023-04-29T00:32:16;-0.40;99.90
23188;DHT22;11762;59.878;17.686;2023-04-29T00:34:43;-0.40;99.90
23188;DHT22;11762;59.878;17.686;2023-04-29T00:37:12;-0.50;99.90
23188;DHT22;11762;59.878;17.686;2023-04-29T00:39:39;-0.40;99.90
23188;DHT22;11762;59.878;17.686;2023-04-29T00:42:07;-0.40;99.90
23188;DHT22;11762;59.878;17.686;2023-04-29T00:44:35;-0.40;99.90
23188;DHT22;11762;59.878;17.686;2023-04-29T00:47:02;-0.40;99.90
23188;DHT22;11762;59.878;17.686;2023-04-29T00:49:29;-0.40;99.90
23188;DHT22;11762;59.878;17.686;2023-04-29T00:51:57;-0.30;99.90
23188;DHT22;11762;59.878;17.686;2023-04-29T00:54:26;-0.20;99.90
23188;DHT22;11762;59.878;17.686;2023-04-29T00:56:53;-0.20;99.90
23188;DHT22;11762;59.878;17.686;2023-04-29T00:59:21;-0.10;99.90
23188;DHT22;11762;59.878;17.686;2023-04-29T01:01:48;-0.10;99.90
23188;DHT22;11762;59.878;17.686;2023-04-29T01:04:17;-0.10;99.90
23188;DHT22;11762;59.878;17.686;2023-04-29T01:06:54;-0.10;99.90
23188;DHT22;11762;59.878;17.686;2023-04-29T01:09:42;-0.10;99.90
23188;DHT22;11762;59.878;17.686;2023-04-29T01:12:20;0.00;99.90
23188;DHT22;11762;59.878;17.686;2023-04-29T01:14:53;-0.10;99.90
23188;DHT22;11762;59.878;17.686;2023-04-29T01:17:27;0.00;99.90
23188;DHT22;11762;59.878;17.686;2023-04-29T01:19:58;-0.10;99.90
23188;DHT22;11762;59.878;17.686;2023-04-29T01:22:26;-0.10;99.90
23188;DHT22;11762;59.878;17.686;2023-04-29T01:24:55;-0.10;99.90
23188;DHT22;11762;59.878;17.686;2023-04-29T01:27:28;-0.20;99.90
23188;DHT22;11762;59.878;17.686;2023-04-29T01:30:01;-0.20;99.90
23188;DHT22;11762;59.878;17.686;2023-04-29T01:32:39;-0.30;99.90
23188;DHT22;11762;59.878;17.686;2023-04-29T01:35:21;-0.30;99.90
23188;DHT22;11762;59.878;17.686;2023-04-29T01:38:13;-0.30;99.90
23188;DHT22;11762;59.878;17.686;2023-04-29T01:40:47;-0.30;99.90
23188;DHT22;11762;59.878;17.686;2023-04-29T01:43:22;-0.30;99.90
23188;DHT22;11762;59.878;17.686;2023-04-29T01:45:52;-0.30;99.90
23188;DHT22;11762;59.878;17.686;2023-04-29T01:48:21;-0.30;99.90
23188;DHT22;11762;59.878;17.686;2023-04-29T01:50:48;-0.40;99.90
23188;DHT22;11762;59.878;17.686;2023-04-29T01:53:15;-0.40;99.90
23188;DHT22;11762;59.878;17.686;2023-04-29T01:55:44;-0.40;99.90
23188;DHT22;11762;59.878;17.686;2023-04-29T01:58:11;-0.50;99.90
23188;DHT22;11762;59.878;17.686;2023-04-29T02:00:38;-0.50;99.90
23188;DHT22;11762;59.878;17.686;2023-04-29T02:03:06;-0.50;99.90
23188;DHT22;11762;59.878;17.686;2023-04-29T02:05:33;-0.50;99.90
23188;DHT22;11762;59.878;17.686;2023-04-29T02:08:01;-0.50;99.90
23188;DHT22;11762;59.878;17.686;2023-04-29T02:10:28;-0.50;99.90
23188;DHT22;11762;59.878;17.686;2023-04-29T02:12:56;-0.50;99.90
23188;DHT22;11762;59.878;17.686;2023-04-29T02:15:25;-0.50;99.90
23188;DHT22;11762;59.878;17.686;2023-04-29T02:17:53;-0.50;99.90
23188;DHT22;11762;59.878;17.686;2023-04-29T02:20:20;-0.50;99.90
23188;DHT22;11762;59.878;17.686;2023-04-29T02:22:47;-0.60;99.90
23188;DHT22;11762;59.878;17.686;2023-04-29T02:25:14;-0.70;99.90
23188;DHT22;11762;59.878;17.686;2023-04-29T02:27:42;-0.80;99.90
23188;DHT22;11762;59.878;17.686;2023-04-29T02:30:11;-0.90;99.90
23188;DHT22;11762;59.878;17.686;2023-04-29T02:32:38;-0.90;99.90
23188;DHT22;11762;59.878;17.686;2023-04-29T02:35:06;-1.00;99.90
23188;DHT22;11762;59.878;17.686;2023-04-29T02:37:33;-1.00;99.90
23188;DHT22;11762;59.878;17.686;2023-04-29T02:40:00;-1.00;99.90
23188;DHT22;11762;59.878;17.686;2023-04-29T02:42:28;-1.00;99.90
23188;DHT22;11762;59.878;17.686;2023-04-29T02:44:55;-1.00;99.90
23188;DHT22;11762;59.878;17.686;2023-04-29T02:47:23;-1.00;99.90
23188;DHT22;11762;59.878;17.686;2023-04-29T02:49:51;-1.00;99.90
23188;DHT22;11762;59.878;17.686;2023-04-29T02:52:18;-1.00;99.90
23188;DHT22;11762;59.878;17.686;2023-04-29T02:54:45;-1.00;99.90
23188;DHT22;11762;59.878;17.686;2023-04-29T02:57:12;-1.00;99.90
23188;DHT22;11762;59.878;17.686;2023-04-29T02:59:39;-1.00;99.90
23188;DHT22;11762;59.878;17.686;2023-04-29T03:02:06;-1.00;99.90
23188;DHT22;11762;59.878;17.686;2023-04-29T03:04:35;-1.00;99.90
23188;DHT22;11762;59.878;17.686;2023-04-29T03:07:02;-1.00;99.90
23188;DHT22;11762;59.878;17.686;2023-04-29T06:49:17;7.70;99.90
23188;DHT22;11762;59.878;17.686;2023-04-29T06:51:43;7.90;99.90
23188;DHT22;11762;59.878;17.686;2023-04-29T06:54:11;8.10;99.90
23188;DHT22;11762;59.878;17.686;2023-04-29T06:56:38;8.50;99.90
23188;DHT22;11762;59.878;17.686;2023-04-29T06:59:05;8.70;99.90
23188;DHT22;11762;59.878;17.686;2023-04-29T07:01:32;8.70;99.90
23188;DHT22;11762;59.878;17.686;2023-04-29T07:03:59;8.50;99.90
23188;DHT22;11762;59.878;17.686;2023-04-29T07:06:28;8.70;99.90
23188;DHT22;11762;59.878;17.686;2023-04-29T07:08:55;9.00;99.90
23188;DHT22;11762;59.878;17.686;2023-04-29T07:11:22;9.70;99.90
23188;DHT22;11762;59.878;17.686;2023-04-29T07:13:49;10.00;99.90
23188;DHT22;11762;59.878;17.686;2023-04-29T07:16:18;9.90;99.90
23188;DHT22;11762;59.878;17.686;2023-04-29T07:18:47;9.90;99.90
23188;DHT22;11762;59.878;17.686;2023-04-29T07:21:14;9.70;99.90
23188;DHT22;11762;59.878;17.686;2023-04-29T07:23:42;9.40;99.90
23188;DHT22;11762;59.878;17.686;2023-04-29T07:26:10;9.30;99.90
23188;DHT22;11762;59.878;17.686;2023-04-29T07:28:38;9.20;99.90
23188;DHT22;11762;59.878;17.686;2023-04-29T07:31:05;9.40;99.90
23188;DHT22;11762;59.878;17.686;2023-04-29T07:33:33;9.60;99.90
23188;DHT22;11762;59.878;17.686;2023-04-29T07:36:00;9.60;99.90
23188;DHT22;11762;59.878;17.686;2023-04-29T07:38:28;9.70;99.90
23188;DHT22;11762;59.878;17.686;2023-04-29T07:40:56;9.90;99.90
23188;DHT22;11762;59.878;17.686;2023-04-29T07:43:23;10.00;99.90
23188;DHT22;11762;59.878;17.686;2023-04-29T07:45:51;10.20;99.90
23188;DHT22;11762;59.878;17.686;2023-04-29T07:48:18;10.30;99.90
23188;DHT22;11762;59.878;17.686;2023-04-29T07:50:45;10.40;99.90
23188;DHT22;11762;59.878;17.686;2023-04-29T07:53:12;10.50;99.90
23188;DHT22;11762;59.878;17.686;2023-04-29T07:55:41;10.50;99.90
23188;DHT22;11762;59.878;17.686;2023-04-29T07:58:10;10.70;99.90
23188;DHT22;11762;59.878;17.686;2023-04-29T08:00:37;10.80;99.90
23188;DHT22;11762;59.878;17.686;2023-04-29T08:03:04;11.00;99.90
23188;DHT22;11762;59.878;17.686;2023-04-29T08:05:31;11.00;99.90
23188;DHT22;11762;59.878;17.686;2023-04-29T08:07:58;11.00;99.90
23188;DHT22;11762;59.878;17.686;2023-04-29T08:10:25;11.00;99.90
23188;DHT22;11762;59.878;17.686;2023-04-29T08:12:52;11.10;99.90
23188;DHT22;11762;59.878;17.686;2023-04-29T08:15:20;11.10;99.90
23188;DHT22;11762;59.878;17.686;2023-04-29T08:17:47;11.00;99.90
23188;DHT22;11762;59.878;17.686;2023-04-29T08:20:14;10.90;99.90
23188;DHT22;11762;59.878;17.686;2023-04-29T08:22:41;10.90;99.90
23188;DHT22;11762;59.878;17.686;2023-04-29T08:25:09;10.70;99.90
23188;DHT22;11762;59.878;17.686;2023-04-29T08:27:36;10.60;99.90
23188;DHT22;11762;59.878;17.686;2023-04-29T08:30:04;10.50;99.90
23188;DHT22;11762;59.878;17.686;2023-04-29T08:32:32;10.60;99.90
23188;DHT22;11762;59.878;17.686;2023-04-29T08:34:59;10.70;99.90
23188;DHT22;11762;59.878;17.686;2023-04-29T08:37:27;10.80;99.90
23188;DHT22;11762;59.878;17.686;2023-04-29T08:39:54;11.00;99.90
23188;DHT22;11762;59.878;17.686;2023-04-29T08:42:32;11.10;99.90
23188;DHT22;11762;59.878;17.686;2023-04-29T08:45:01;11.30;99.90
23188;DHT22;11762;59.878;17.686;2023-04-29T08:47:29;11.40;99.90
23188;DHT22;11762;59.878;17.686;2023-04-29T08:50:01;11.40;99.90
23188;DHT22;11762;59.878;17.686;2023-04-29T08:52:29;11.20;99.90
23188;DHT22;11762;59.878;17.686;2023-04-29T08:54:57;11.10;99.90
23188;DHT22;11762;59.878;17.686;2023-04-29T08:57:25;11.30;99.90
23188;DHT22;11762;59.878;17.686;2023-04-29T08:59:52;11.50;99.90
23188;DHT22;11762;59.878;17.686;2023-04-29T09:02:19;11.40;99.90
23188;DHT22;11762;59.878;17.686;2023-04-29T09:04:52;11.50;99.90
23188;DHT22;11762;59.878;17.686;2023-04-29T09:07:22;11.50;99.90
23188;DHT22;11762;59.878;17.686;2023-04-29T09:09:50;11.50;99.90
23188;DHT22;11762;59.878;17.686;2023-04-29T09:12:19;11.40;99.90
23188;DHT22;11762;59.878;17.686;2023-04-29T09:14:46;11.30;99.90
23188;DHT22;11762;59.878;17.686;2023-04-29T09:17:13;11.30;99.90
23188;DHT22;11762;59.878;17.686;2023-04-29T09:19:43;11.40;99.90
23188;DHT22;11762;59.878;17.686;2023-04-29T09:22:10;11.40;99.90
23188;DHT22;11762;59.878;17.686;2023-04-29T09:24:39;11.40;99.90
23188;DHT22;11762;59.878;17.686;2023-04-29T09:27:05;11.50;99.90
23188;DHT22;11762;59.878;17.686;2023-04-29T09:29:33;11.50;99.90
23188;DHT22;11762;59.878;17.686;2023-04-29T09:32:18;11.50;99.90
23188;DHT22;11762;59.878;17.686;2023-04-29T09:34:46;11.50;99.90
23188;DHT22;11762;59.878;17.686;2023-04-29T09:37:24;11.40;99.90
23188;DHT22;11762;59.878;17.686;2023-04-29T09:39:53;11.00;99.90
23188;DHT22;11762;59.878;17.686;2023-04-29T09:42:21;10.80;99.90
23188;DHT22;11762;59.878;17.686;2023-04-29T09:44:48;10.60;99.90
23188;DHT22;11762;59.878;17.686;2023-04-29T09:47:16;10.70;99.90
23188;DHT22;11762;59.878;17.686;2023-04-29T09:49:44;10.80;99.90
23188;DHT22;11762;59.878;17.686;2023-04-29T09:52:12;10.90;99.90
23188;DHT22;11762;59.878;17.686;2023-04-29T09:54:42;11.10;99.90
23188;DHT22;11762;59.878;17.686;2023-04-29T09:57:11;11.10;99.90
23188;DHT22;11762;59.878;17.686;2023-04-29T09:59:40;11.20;99.90
23188;DHT22;11762;59.878;17.686;2023-04-29T10:02:12;11.20;99.90
23188;DHT22;11762;59.878;17.686;2023-04-29T10:04:41;11.00;99.90
23188;DHT22;11762;59.878;17.686;2023-04-29T10:07:13;11.00;99.90
23188;DHT22;11762;59.878;17.686;2023-04-29T10:09:41;11.00;99.90
23188;DHT22;11762;59.878;17.686;2023-04-29T10:12:14;10.90;99.90
23188;DHT22;11762;59.878;17.686;2023-04-29T10:14:44;10.60;99.90
23188;DHT22;11762;59.878;17.686;2023-04-29T10:17:19;10.60;99.90
23188;DHT22;11762;59.878;17.686;2023-04-29T10:19:53;10.70;99.90
23188;DHT22;11762;59.878;17.686;2023-04-29T10:22:28;10.80;99.90
23188;DHT22;11762;59.878;17.686;2023-04-29T10:24:56;10.90;99.90
23188;DHT22;11762;59.878;17.686;2023-04-29T10:27:26;10.70;99.90
23188;DHT22;11762;59.878;17.686;2023-04-29T10:29:55;10.80;99.90
23188;DHT22;11762;59.878;17.686;2023-04-29T10:32:22;10.90;99.90
23188;DHT22;11762;59.878;17.686;2023-04-29T10:34:51;11.00;99.90
23188;DHT22;11762;59.878;17.686;2023-04-29T10:37:19;11.00;99.90
23188;DHT22;11762;59.878;17.686;2023-04-29T10:39:51;11.00;99.90
23188;DHT22;11762;59.878;17.686;2023-04-29T10:42:30;10.90;99.90
23188;DHT22;11762;59.878;17.686;2023-04-29T10:45:23;10.90;99.90
23188;DHT22;11762;59.878;17.686;2023-04-29T10:48:10;10.70;99.90
23188;DHT22;11762;59.878;17.686;2023-04-29T10:50:59;10.70;99.90
23188;DHT22;11762;59.878;17.686;2023-04-29T10:53:27;10.70;99.90
23188;DHT22;11762;59.878;17.686;2023-04-29T10:58:44;10.80;99.90
23188;DHT22;11762;59.878;17.686;2023-04-29T11:01:13;10.60;99.90
23188;DHT22;11762;59.878;17.686;2023-04-29T11:03:51;10.50;99.90
23188;DHT22;11762;59.878;17.686;2023-04-29T11:06:25;10.50;99.90
23188;DHT22;11762;59.878;17.686;2023-04-29T11:09:03;10.40;99.90
23188;DHT22;11762;59.878;17.686;2023-04-29T11:11:57;10.50;99.90
23188;DHT22;11762;59.878;17.686;2023-04-29T11:14:30;10.40;99.90
23188;DHT22;11762;59.878;17.686;2023-04-29T11:16:59;10.30;99.90
23188;DHT22;11762;59.878;17.686;2023-04-29T11:19:30;10.20;99.90
23188;DHT22;11762;59.878;17.686;2023-04-29T11:22:09;10.00;99.90
23188;DHT22;11762;59.878;17.686;2023-04-29T11:24:50;10.00;99.90
23188;DHT22;11762;59.878;17.686;2023-04-29T11:27:18;10.00;99.90
23188;DHT22;11762;59.878;17.686;2023-04-29T11:29:49;10.00;99.90
23188;DHT22;11762;59.878;17.686;2023-04-29T11:32:19;10.10;99.90
23188;DHT22;11762;59.878;17.686;2023-04-29T11:34:47;10.20;99.90
23188;DHT22;11762;59.878;17.686;2023-04-29T11:37:19;10.30;99.90
23188;DHT22;11762;59.878;17.686;2023-04-29T11:39:47;10.50;99.90
23188;DHT22;11762;59.878;17.686;2023-04-29T11:42:19;10.80;99.90
23188;DHT22;11762;59.878;17.686;2023-04-29T11:44:49;11.00;99.90
23188;DHT22;11762;59.878;17.686;2023-04-29T11:47:16;11.20;99.90
23188;DHT22;11762;59.878;17.686;2023-04-29T11:49:43;11.50;99.90
23188;DHT22;11762;59.878;17.686;2023-04-29T11:52:11;11.60;99.90
23188;DHT22;11762;59.878;17.686;2023-04-29T11:54:40;11.70;99.90
23188;DHT22;11762;59.878;17.686;2023-04-29T11:57:09;11.80;99.90
23188;DHT22;11762;59.878;17.686;2023-04-29T11:59:36;11.70;99.90
23188;DHT22;11762;59.878;17.686;2023-04-29T12:02:05;11.50;99.90
23188;DHT22;11762;59.878;17.686;2023-04-29T12:04:33;11.70;99.90
23188;DHT22;11762;59.878;17.686;2023-04-29T12:07:02;11.60;99.90
23188;DHT22;11762;59.878;17.686;2023-04-29T12:09:40;11.40;99.90
23188;DHT22;11762;59.878;17.686;2023-04-29T12:12:08;11.20;99.90
23188;DHT22;11762;59.878;17.686;2023-04-29T12:14:36;11.10;99.90
23188;DHT22;11762;59.878;17.686;2023-04-29T12:17:04;11.00;99.90
23188;DHT22;11762;59.878;17.686;2023-04-29T12:19:32;11.10;99.90
23188;DHT22;11762;59.878;17.686;2023-04-29T12:21:59;11.20;99.90
23188;DHT22;11762;59.878;17.686;2023-04-29T12:24:28;11.20;99.90
23188;DHT22;11762;59.878;17.686;2023-04-29T12:26:55;11.30;99.90
23188;DHT22;11762;59.878;17.686;2023-04-29T12:29:25;11.30;99.90
23188;DHT22;11762;59.878;17.686;2023-04-29T12:31:52;11.20;99.90
23188;DHT22;11762;59.878;17.686;2023-04-29T12:34:25;10.70;99.90
23188;DHT22;11762;59.878;17.686;2023-04-29T12:36:54;10.30;99.90
23188;DHT22;11762;59.878;17.686;2023-04-29T12:39:22;10.30;99.90
23188;DHT22;11762;59.878;17.686;2023-04-29T12:41:54;10.20;99.90
23188;DHT22;11762;59.878;17.686;2023-04-29T12:44:22;10.10;99.90
23188;DHT22;11762;59.878;17.686;2023-04-29T12:46:49;10.20;99.90
23188;DHT22;11762;59.878;17.686;2023-04-29T12:49:18;10.40;99.90
23188;DHT22;11762;59.878;17.686;2023-04-29T12:51:46;10.70;99.90
23188;DHT22;11762;59.878;17.686;2023-04-29T12:54:13;10.90;99.90
23188;DHT22;11762;59.878;17.686;2023-04-29T12:56:41;11.00;99.90
23188;DHT22;11762;59.878;17.686;2023-04-29T12:59:09;11.10;99.90
23188;DHT22;11762;59.878;17.686;2023-04-29T13:01:36;10.90;99.90
23188;DHT22;11762;59.878;17.686;2023-04-29T13:04:04;10.60;99.90
23188;DHT22;11762;59.878;17.686;2023-04-29T13:06:33;10.50;99.90
23188;DHT22;11762;59.878;17.686;2023-04-29T13:09:05;10.10;99.90
23188;DHT22;11762;59.878;17.686;2023-04-29T13:11:36;9.80;99.90
23188;DHT22;11762;59.878;17.686;2023-04-29T13:14:03;9.50;99.90
23188;DHT22;11762;59.878;17.686;2023-04-29T13:16:31;9.40;99.90
23188;DHT22;11762;59.878;17.686;2023-04-29T13:18:59;9.30;99.90
23188;DHT22;11762;59.878;17.686;2023-04-29T13:21:26;9.40;99.90
23188;DHT22;11762;59.878;17.686;2023-04-29T13:23:53;9.30;99.90
23188;DHT22;11762;59.878;17.686;2023-04-29T13:26:22;9.30;99.90
23188;DHT22;11762;59.878;17.686;2023-04-29T13:28:49;9.40;99.90
23188;DHT22;11762;59.878;17.686;2023-04-29T13:31:16;9.40;99.90
23188;DHT22;11762;59.878;17.686;2023-04-29T13:33:43;9.40;99.90
23188;DHT22;11762;59.878;17.686;2023-04-29T13:36:12;9.50;99.90
23188;DHT22;11762;59.878;17.686;2023-04-29T13:38:39;9.30;99.90
23188;DHT22;11762;59.878;17.686;2023-04-29T13:41:06;9.10;99.90
23188;DHT22;11762;59.878;17.686;2023-04-29T13:43:35;9.10;99.90
23188;DHT22;11762;59.878;17.686;2023-04-29T13:46:02;9.00;99.90
23188;DHT22;11762;59.878;17.686;2023-04-29T13:48:29;8.90;99.90
23188;DHT22;11762;59.878;17.686;2023-04-29T13:50:56;8.90;99.90
23188;DHT22;11762;59.878;17.686;2023-04-29T13:53:23;9.20;99.90
23188;DHT22;11762;59.878;17.686;2023-04-29T13:55:50;9.40;99.90
23188;DHT22;11762;59.878;17.686;2023-04-29T13:58:17;9.00;99.90
23188;DHT22;11762;59.878;17.686;2023-04-29T14:00:46;8.90;99.90
23188;DHT22;11762;59.878;17.686;2023-04-29T14:03:13;8.90;99.90
23188;DHT22;11762;59.878;17.686;2023-04-29T14:05:43;8.80;99.90
23188;DHT22;11762;59.878;17.686;2023-04-29T14:08:09;8.90;99.90
23188;DHT22;11762;59.878;17.686;2023-04-29T14:10:37;8.80;99.90
23188;DHT22;11762;59.878;17.686;2023-04-29T14:13:04;8.70;99.90
23188;DHT22;11762;59.878;17.686;2023-04-29T14:15:31;8.90;99.90
23188;DHT22;11762;59.878;17.686;2023-04-29T14:18:00;8.90;99.90
23188;DHT22;11762;59.878;17.686;2023-04-29T14:20:27;8.70;99.90
23188;DHT22;11762;59.878;17.686;2023-04-29T14:22:54;8.60;99.90
23188;DHT22;11762;59.878;17.686;2023-04-29T14:25:21;8.60;99.90
23188;DHT22;11762;59.878;17.686;2023-04-29T14:27:48;8.60;99.90
23188;DHT22;11762;59.878;17.686;2023-04-29T14:30:15;8.70;99.90
23188;DHT22;11762;59.878;17.686;2023-04-29T14:32:44;8.90;99.90
23188;DHT22;11762;59.878;17.686;2023-04-29T14:35:13;8.80;99.90
23188;DHT22;11762;59.878;17.686;2023-04-29T14:37:40;8.70;99.90
23188;DHT22;11762;59.878;17.686;2023-04-29T14:40:08;8.60;99.90
23188;DHT22;11762;59.878;17.686;2023-04-29T14:42:35;8.60;99.90
23188;DHT22;11762;59.878;17.686;2023-04-29T14:45:03;8.50;99.90
23188;DHT22;11762;59.878;17.686;2023-04-29T14:47:30;8.60;99.90
23188;DHT22;11762;59.878;17.686;2023-04-29T14:49:57;8.70;99.90
23188;DHT22;11762;59.878;17.686;2023-04-29T14:52:26;8.70;99.90
23188;DHT22;11762;59.878;17.686;2023-04-29T14:54:53;8.70;99.90
23188;DHT22;11762;59.878;17.686;2023-04-29T14:57:20;8.60;99.90
23188;DHT22;11762;59.878;17.686;2023-04-29T14:59:47;8.60;99.90
23188;DHT22;11762;59.878;17.686;2023-04-29T15:02:14;8.60;99.90
23188;DHT22;11762;59.878;17.686;2023-04-29T15:04:41;8.60;99.90
23188;DHT22;11762;59.878;17.686;2023-04-29T15:07:10;8.70;99.90
23188;DHT22;11762;59.878;17.686;2023-04-29T15:09:39;9.00;99.90
23188;DHT22;11762;59.878;17.686;2023-04-29T15:12:06;9.20;99.90
23188;DHT22;11762;59.878;17.686;2023-04-29T15:14:33;9.30;99.90
23188;DHT22;11762;59.878;17.686;2023-04-29T15:17:00;9.10;99.90
23188;DHT22;11762;59.878;17.686;2023-04-29T15:19:27;9.10;99.90
23188;DHT22;11762;59.878;17.686;2023-04-29T15:21:54;9.00;99.90
23188;DHT22;11762;59.878;17.686;2023-04-29T15:24:22;8.90;99.90
23188;DHT22;11762;59.878;17.686;2023-04-29T15:26:51;8.90;99.90
23188;DHT22;11762;59.878;17.686;2023-04-29T15:29:18;8.90;99.90
23188;DHT22;11762;59.878;17.686;2023-04-29T15:31:46;8.80;99.90
23188;DHT22;11762;59.878;17.686;2023-04-29T15:34:12;8.70;99.90
23188;DHT22;11762;59.878;17.686;2023-04-29T15:36:40;8.60;99.90
23188;DHT22;11762;59.878;17.686;2023-04-29T15:39:08;8.40;99.90
23188;DHT22;11762;59.878;17.686;2023-04-29T15:41:36;8.40;99.90
23188;DHT22;11762;59.878;17.686;2023-04-29T15:44:05;8.10;99.90
23188;DHT22;11762;59.878;17.686;2023-04-29T15:46:32;8.00;99.90
23188;DHT22;11762;59.878;17.686;2023-04-29T15:48:59;7.60;99.90
23188;DHT22;11762;59.878;17.686;2023-04-29T15:51:27;7.40;99.90
23188;DHT22;11762;59.878;17.686;2023-04-29T15:53:54;7.20;99.90
23188;DHT22;11762;59.878;17.686;2023-04-29T15:56:21;7.10;99.90
23188;DHT22;11762;59.878;17.686;2023-04-29T15:58:48;7.00;99.90
23188;DHT22;11762;59.878;17.686;2023-04-29T16:01:16;6.80;99.90
23188;DHT22;11762;59.878;17.686;2023-04-29T16:03:43;6.60;99.90
23188;DHT22;11762;59.878;17.686;2023-04-29T16:06:10;6.50;99.90
23188;DHT22;11762;59.878;17.686;2023-04-29T16:08:37;6.30;99.90
23188;DHT22;11762;59.878;17.686;2023-04-29T16:11:04;6.10;99.90
23188;DHT22;11762;59.878;17.686;2023-04-29T16:13:31;5.90;99.90
23188;DHT22;11762;59.878;17.686;2023-04-29T16:15:58;5.70;99.90
23188;DHT22;11762;59.878;17.686;2023-04-29T16:18:27;5.50;99.90
23188;DHT22;11762;59.878;17.686;2023-04-29T16:20:54;5.40;99.90
23188;DHT22;11762;59.878;17.686;2023-04-29T16:23:21;5.40;99.90
23188;DHT22;11762;59.878;17.686;2023-04-29T16:25:48;5.30;99.90
23188;DHT22;11762;59.878;17.686;2023-04-29T16:28:15;5.30;99.90
23188;DHT22;11762;59.878;17.686;2023-04-29T16:30:43;5.30;99.90
23188;DHT22;11762;59.878;17.686;2023-04-29T16:33:10;5.40;99.90
23188;DHT22;11762;59.878;17.686;2023-04-29T16:35:38;5.40;99.90
23188;DHT22;11762;59.878;17.686;2023-04-29T16:38:05;5.50;99.90
23188;DHT22;11762;59.878;17.686;2023-04-29T16:40:32;5.70;99.90
23188;DHT22;11762;59.878;17.686;2023-04-29T16:42:59;5.70;99.90
23188;DHT22;11762;59.878;17.686;2023-04-29T16:45:26;5.80;99.90
23188;DHT22;11762;59.878;17.686;2023-04-29T16:47:53;5.70;99.90
23188;DHT22;11762;59.878;17.686;2023-04-29T16:50:20;5.60;99.90
23188;DHT22;11762;59.878;17.686;2023-04-29T16:52:48;5.70;99.90
23188;DHT22;11762;59.878;17.686;2023-04-29T16:55:16;5.70;99.90
23188;DHT22;11762;59.878;17.686;2023-04-29T16:57:43;5.90;99.90
23188;DHT22;11762;59.878;17.686;2023-04-29T17:00:10;6.00;99.90
23188;DHT22;11762;59.878;17.686;2023-04-29T17:02:38;6.20;99.90
23188;DHT22;11762;59.878;17.686;2023-04-29T17:05:08;6.10;99.90
23188;DHT22;11762;59.878;17.686;2023-04-29T17:07:35;6.10;99.90
23188;DHT22;11762;59.878;17.686;2023-04-29T17:10:05;6.00;99.90
23188;DHT22;11762;59.878;17.686;2023-04-29T17:12:32;6.00;99.90
23188;DHT22;11762;59.878;17.686;2023-04-29T17:15:00;6.00;99.90
23188;DHT22;11762;59.878;17.686;2023-04-29T17:17:27;6.00;99.90
23188;DHT22;11762;59.878;17.686;2023-04-29T17:19:54;6.00;99.90
23188;DHT22;11762;59.878;17.686;2023-04-29T17:22:21;6.00;99.90
23188;DHT22;11762;59.878;17.686;2023-04-29T17:24:48;6.00;99.90
23188;DHT22;11762;59.878;17.686;2023-04-29T17:27:17;5.90;99.90
23188;DHT22;11762;59.878;17.686;2023-04-29T17:29:44;5.90;99.90
23188;DHT22;11762;59.878;17.686;2023-04-29T17:32:11;5.90;99.90
23188;DHT22;11762;59.878;17.686;2023-04-29T17:34:41;5.80;99.90
23188;DHT22;11762;59.878;17.686;2023-04-29T17:37:09;5.80;99.90
23188;DHT22;11762;59.878;17.686;2023-04-29T17:39:36;5.80;99.90
23188;DHT22;11762;59.878;17.686;2023-04-29T17:42:03;5.80;99.90
23188;DHT22;11762;59.878;17.686;2023-04-29T17:44:31;5.80;99.90
23188;DHT22;11762;59.878;17.686;2023-04-29T17:46:58;5.80;99.90
23188;DHT22;11762;59.878;17.686;2023-04-29T17:49:25;5.80;99.90
23188;DHT22;11762;59.878;17.686;2023-04-29T17:51:52;5.80;99.90
23188;DHT22;11762;59.878;17.686;2023-04-29T17:54:19;5.80;99.90
23188;DHT22;11762;59.878;17.686;2023-04-29T17:56:46;5.80;99.90
23188;DHT22;11762;59.878;17.686;2023-04-29T17:59:13;5.80;99.90
23188;DHT22;11762;59.878;17.686;2023-04-29T18:01:42;5.70;99.90
23188;DHT22;11762;59.878;17.686;2023-04-29T18:04:09;5.70;99.90
23188;DHT22;11762;59.878;17.686;2023-04-29T18:06:36;5.70;99.90
23188;DHT22;11762;59.878;17.686;2023-04-29T18:09:03;5.70;99.90
23188;DHT22;11762;59.878;17.686;2023-04-29T18:11:30;5.70;99.90
23188;DHT22;11762;59.878;17.686;2023-04-29T18:13:58;5.70;99.90
23188;DHT22;11762;59.878;17.686;2023-04-29T18:16:25;5.60;99.90
23188;DHT22;11762;59.878;17.686;2023-04-29T18:18:54;5.60;99.90
23188;DHT22;11762;59.878;17.686;2023-04-29T18:21:21;5.60;99.90
23188;DHT22;11762;59.878;17.686;2023-04-29T18:23:48;5.50;99.90
23188;DHT22;11762;59.878;17.686;2023-04-29T18:26:16;5.40;99.90
23188;DHT22;11762;59.878;17.686;2023-04-29T18:28:43;5.30;99.90
23188;DHT22;11762;59.878;17.686;2023-04-29T18:31:11;5.20;99.90
23188;DHT22;11762;59.878;17.686;2023-04-29T18:33:39;5.10;99.90
23188;DHT22;11762;59.878;17.686;2023-04-29T18:36:08;5.20;99.90
23188;DHT22;11762;59.878;17.686;2023-04-29T18:38:35;5.30;99.90
23188;DHT22;11762;59.878;17.686;2023-04-29T18:41:02;5.30;99.90
23188;DHT22;11762;59.878;17.686;2023-04-29T18:43:29;5.40;99.90
23188;DHT22;11762;59.878;17.686;2023-04-29T18:45:57;5.40;99.90
23188;DHT22;11762;59.878;17.686;2023-04-29T18:48:28;5.30;99.90
23188;DHT22;11762;59.878;17.686;2023-04-29T18:50:56;5.20;99.90
23188;DHT22;11762;59.878;17.686;2023-04-29T18:53:26;5.20;99.90
23188;DHT22;11762;59.878;17.686;2023-04-29T18:55:53;5.10;99.90
23188;DHT22;11762;59.878;17.686;2023-04-29T18:58:20;5.10;99.90
23188;DHT22;11762;59.878;17.686;2023-04-29T19:00:47;5.00;99.90
23188;DHT22;11762;59.878;17.686;2023-04-29T19:03:14;5.00;99.90
23188;DHT22;11762;59.878;17.686;2023-04-29T19:05:42;4.90;99.90
23188;DHT22;11762;59.878;17.686;2023-04-29T19:08:09;4.80;99.90
23188;DHT22;11762;59.878;17.686;2023-04-29T19:10:38;4.70;99.90
23188;DHT22;11762;59.878;17.686;2023-04-29T19:13:05;4.70;99.90